createdAt,value
2022-09-01T00:00:03.488Z,79.2
2022-09-01T00:05:06.167Z,80.1
2022-09-01T00:10:01.042Z,79.7
2022-09-01T00:15:02.223Z,80.2
2022-09-01T00:20:02.175Z,80.5
2022-09-01T00:25:07.287Z,80.3
2022-09-01T00:30:01.205Z,80.1
2022-09-01T00:45:01.715Z,82.0
2022-09-01T00:50:01.806Z,82.5
2022-09-01T00:55:03.719Z,82.3
2022-09-01T01:00:07.660Z,82.4
2022-09-01T01:05:07.751Z,82.7
2022-09-01T01:10:07.605Z,82.6
2022-09-01T01:15:01.675Z,81.9
2022-09-01T01:20:02.647Z,81.1
2022-09-01T02:05:06.660Z,53.4
2022-09-01T02:10:07.676Z,56.7
2022-09-01T02:15:01.711Z,57.3
2022-09-01T02:20:01.587Z,56.8
2022-09-01T02:45:02.594Z,52.6
2022-09-01T02:50:02.125Z,54.1
2022-09-01T02:55:01.125Z,55.7
2022-09-01T03:05:02.153Z,59.7
2022-09-01T03:10:01.122Z,60.8
2022-09-01T03:20:01.076Z,61.6
2022-09-01T03:35:02.783Z,62.2
2022-09-01T03:40:06.753Z,62.3
2022-09-01T03:45:01.771Z,63.7
2022-09-01T03:50:01.662Z,64.8
2022-09-01T04:15:01.371Z,65.2
2022-09-01T04:20:01.142Z,65.1
2022-09-01T04:25:01.249Z,67.9
2022-09-01T04:30:01.254Z,69.2
2022-09-01T04:55:00.792Z,72.6
2022-09-01T05:00:00.737Z,73.4
2022-09-01T05:05:00.886Z,72.3
2022-09-01T05:10:06.831Z,79.7
2022-09-01T05:35:01.215Z,71.8
2022-09-01T05:40:01.264Z,72.1
2022-09-01T05:45:01.246Z,72.0
2022-09-01T05:50:01.126Z,72.3
2022-09-01T05:55:01.181Z,71.2
2022-09-01T06:00:01.119Z,71.0
2022-09-01T06:10:01.210Z,69.4
2022-09-01T06:15:01.252Z,67.4
2022-09-01T06:20:01.190Z,64.5
2022-09-01T06:25:02.577Z,63.1
2022-09-01T06:30:01.201Z,60.5
2022-09-01T06:35:02.278Z,59.1
2022-09-01T06:40:02.270Z,58.2
2022-09-01T06:45:01.240Z,58.0
2022-09-01T06:50:01.116Z,58.5
2022-09-01T06:55:04.555Z,56.7
2022-09-01T07:00:01.151Z,54.9
2022-09-01T07:05:01.364Z,55.8
2022-09-01T07:10:22.741Z,55.1
2022-09-01T07:35:01.430Z,54.2
2022-09-01T08:05:01.833Z,61.0
2022-09-01T08:10:01.762Z,62.0
2022-09-01T08:35:01.125Z,70.4
2022-09-01T08:40:01.107Z,70.2
2022-09-01T08:45:01.103Z,69.7
2022-09-01T08:55:01.207Z,68.8
2022-09-01T09:15:01.743Z,65.2
2022-09-01T09:20:01.600Z,64.9
2022-09-01T09:25:01.729Z,65.3
2022-09-01T09:30:05.863Z,64.4
2022-09-01T09:45:01.082Z,69.4
2022-09-01T09:50:01.022Z,65.6
2022-09-01T10:05:01.468Z,62.6
2022-09-01T10:25:00.809Z,63.0
2022-09-01T10:30:24.289Z,72.4
2022-09-01T10:35:00.823Z,69.9
2022-09-01T10:40:00.752Z,67.9
2022-09-01T10:45:00.993Z,66.8
2022-09-01T10:50:01.445Z,66.5
2022-09-01T11:05:01.238Z,68.4
2022-09-01T11:10:10.976Z,67.5
2022-09-01T11:15:01.144Z,68.7
2022-09-01T11:20:01.141Z,71.6
2022-09-01T11:25:12.390Z,73.1
2022-09-01T11:45:00.832Z,86.6
2022-09-01T12:05:01.163Z,78.6
2022-09-01T12:10:01.016Z,81.4
2022-09-01T12:15:07.994Z,80.8
2022-09-01T12:35:04.231Z,78.4
2022-09-01T12:40:01.555Z,77.8
2022-09-01T12:45:01.853Z,77.0
2022-09-01T12:50:03.351Z,75.8
2022-09-01T12:55:01.515Z,75.6
2022-09-01T13:00:01.455Z,74.5
2022-09-01T13:05:01.602Z,74.1
2022-09-01T13:25:02.076Z,73.8
2022-09-01T13:30:00.967Z,73.9
2022-09-01T13:40:01.812Z,73.7
2022-09-01T13:45:01.098Z,74.0
2022-09-01T13:50:10.706Z,74.5
2022-09-01T13:55:01.160Z,74.1
2022-09-01T14:00:00.965Z,73.6
2022-09-01T14:05:01.101Z,73.3
2022-09-01T14:10:00.974Z,72.5
2022-09-01T14:15:17.943Z,71.7
2022-09-01T14:20:00.962Z,71.4
2022-09-01T16:05:01.304Z,67.0
2022-09-01T16:10:01.202Z,69.1
2022-09-01T16:15:01.270Z,70.0
2022-09-01T16:20:01.196Z,70.6
2022-09-01T16:25:01.318Z,71.1
2022-09-01T16:30:01.195Z,71.4
2022-09-01T16:35:01.333Z,71.6
2022-09-01T16:40:01.190Z,71.1
2022-09-01T16:55:00.827Z,69.0
2022-09-01T17:15:01.191Z,69.2
2022-09-01T17:20:01.270Z,70.6
2022-09-01T17:25:01.147Z,72.9
2022-09-01T17:30:01.222Z,73.3
2022-09-01T17:35:01.149Z,73.2
2022-09-01T17:55:01.697Z,75.8
2022-09-01T18:15:01.038Z,62.2
2022-09-01T18:20:00.893Z,61.3
2022-09-01T18:35:01.398Z,60.6
2022-09-01T18:55:01.693Z,53.4
2022-09-01T19:00:01.952Z,54.5
2022-09-01T19:15:01.046Z,64.8
2022-09-01T19:20:00.973Z,62.1
2022-09-01T19:35:02.347Z,61.8
2022-09-01T19:40:01.304Z,63.5
2022-09-01T19:45:06.768Z,62.5
2022-09-01T19:50:01.634Z,61.3
2022-09-01T19:55:01.400Z,61.2
2022-09-01T20:15:00.867Z,69.6
2022-09-01T20:20:05.789Z,68.9
2022-09-01T20:25:01.847Z,68.7
2022-09-01T20:30:01.283Z,68.4
2022-09-01T20:35:05.926Z,68.8
2022-09-01T20:40:05.872Z,68.4
2022-09-01T20:45:00.932Z,68.5
2022-09-01T20:50:00.819Z,69.0
2022-09-01T20:55:05.860Z,69.5
2022-09-01T21:00:05.789Z,69.4
2022-09-01T21:05:05.844Z,70.1
2022-09-01T21:10:00.780Z,72.7
2022-09-01T21:25:01.684Z,74.4
2022-09-01T21:30:01.543Z,74.1
2022-09-01T21:35:02.568Z,72.4
2022-09-01T21:40:01.537Z,72.2
2022-09-01T21:45:01.667Z,72.1
2022-09-01T21:50:01.525Z,71.4
2022-09-01T21:55:01.651Z,77.0
2022-09-01T22:00:01.610Z,77.2
2022-09-01T22:05:01.688Z,77.8
2022-09-01T22:10:06.519Z,77.4
2022-09-01T22:15:01.570Z,78.0
2022-09-01T22:20:02.574Z,72.9
2022-09-01T22:25:01.623Z,73.5
2022-09-01T22:30:01.613Z,73.2
2022-09-01T22:35:01.640Z,74.7
2022-09-01T22:40:01.498Z,75.1
2022-09-01T22:45:01.573Z,75.3
2022-09-01T22:50:01.511Z,76.8
2022-09-01T22:55:01.546Z,78.8
2022-09-01T23:00:01.492Z,79.9
2022-09-01T23:05:02.573Z,83.1
2022-09-01T23:10:01.515Z,86.6
2022-09-01T23:15:01.614Z,89.0
2022-09-01T23:20:01.517Z,92.9
2022-09-01T23:25:01.579Z,95.1
2022-09-01T23:30:01.464Z,91.4
2022-09-01T23:35:06.529Z,87.8
2022-09-01T23:40:01.502Z,83.7
2022-09-01T23:45:06.524Z,80.7
2022-09-01T23:50:01.740Z,85.9
2022-09-01T23:55:01.563Z,86.0
